Time;durP1;ratioP1;P1;durP2;ratioP2;P2;SDS_P1;SDS_P2;PMS_P1;PMS_P2;Temp;Humidity;BMP_temperature;BMP_pressure;BME280_temperature;BME280_humidity;BME280_pressure;Samples;Min_cycle;Max_cycle;Signal;HPM_P1;HPM_P2
2022/04/24 00:01:36;;;;;;;9.73;6.30;;;9.90;99.90;;;;;;5114244;28;20036;-79
2022/04/24 00:04:02;;;;;;;10.10;6.20;;;10.20;99.90;;;;;;5114614;27;20035;-77
2022/04/24 00:06:28;;;;;;;10.40;5.80;;;9.90;99.90;;;;;;5114393;28;20055;-77
2022/04/24 00:08:53;;;;;;;9.15;6.07;;;9.90;99.90;;;;;;5114160;28;20189;-78
2022/04/24 00:11:19;;;;;;;9.20;6.57;;;9.80;99.90;;;;;;5113944;28;20046;-77
2022/04/24 00:13:45;;;;;;;8.48;5.97;;;9.80;99.90;;;;;;5113252;28;20054;-78
2022/04/24 00:16:10;;;;;;;11.27;5.95;;;9.90;99.90;;;;;;5113970;28;20508;-79
2022/04/24 00:18:38;;;;;;;8.38;5.82;;;9.70;99.90;;;;;;5094191;28;20052;-78
2022/04/24 00:21:04;;;;;;;7.90;5.88;;;9.60;99.90;;;;;;5093668;28;20487;-79
2022/04/24 00:23:31;;;;;;;8.25;5.90;;;9.60;99.90;;;;;;5093584;28;20044;-79
2022/04/24 00:25:56;;;;;;;10.68;6.10;;;9.60;99.90;;;;;;5091971;28;20047;-77
2022/04/24 00:28:22;;;;;;;8.40;6.10;;;9.60;99.90;;;;;;5093429;28;20066;-78
2022/04/24 00:30:47;;;;;;;11.57;6.70;;;9.60;99.90;;;;;;5092240;28;20137;-77
2022/04/24 00:33:13;;;;;;;8.60;5.90;;;9.50;99.90;;;;;;5093312;28;20566;-79
2022/04/24 00:35:39;;;;;;;11.13;5.95;;;9.50;99.90;;;;;;5093294;28;20047;-80
2022/04/24 00:38:05;;;;;;;9.65;6.05;;;9.50;99.90;;;;;;5091999;28;20048;-78
2022/04/24 00:40:30;;;;;;;11.52;6.38;;;9.50;99.90;;;;;;5093234;28;20123;-78
2022/04/24 00:42:56;;;;;;;10.05;6.40;;;9.40;99.90;;;;;;5092711;28;20059;-79
2022/04/24 00:45:22;;;;;;;9.13;5.85;;;9.80;99.90;;;;;;5092937;28;20040;-78
2022/04/24 00:47:48;;;;;;;9.13;6.20;;;9.40;99.90;;;;;;5104127;28;20039;-79
2022/04/24 00:50:14;;;;;;;9.32;6.22;;;9.30;99.90;;;;;;5113509;28;20070;-80
2022/04/24 00:52:40;;;;;;;10.52;5.65;;;9.30;99.90;;;;;;5113586;28;20466;-77
2022/04/24 00:55:06;;;;;;;8.95;6.22;;;9.30;99.90;;;;;;5112105;28;20067;-78
2022/04/24 00:57:32;;;;;;;8.43;6.30;;;9.20;99.90;;;;;;5112785;28;20771;-79
2022/04/24 00:59:58;;;;;;;11.10;6.80;;;9.20;99.90;;;;;;5112745;28;20086;-78
2022/04/24 01:02:24;;;;;;;9.38;6.25;;;9.20;99.90;;;;;;5113037;28;20599;-78
2022/04/24 01:04:50;;;;;;;9.75;5.60;;;9.20;99.90;;;;;;5111719;28;20046;-78
2022/04/24 01:07:16;;;;;;;8.82;6.40;;;9.30;99.90;;;;;;5113229;28;20040;-78
2022/04/24 01:09:41;;;;;;;10.05;6.03;;;9.10;99.90;;;;;;5112617;28;20506;-78
2022/04/24 01:12:08;;;;;;;8.88;6.20;;;9.10;99.90;;;;;;5111536;28;20052;-78
2022/04/24 01:14:34;;;;;;;9.20;6.15;;;9.10;99.90;;;;;;5112611;28;20055;-80
2022/04/24 01:17:02;;;;;;;8.70;6.22;;;9.00;99.90;;;;;;5106318;28;20047;-78
2022/04/24 01:19:27;;;;;;;8.43;5.95;;;9.00;99.90;;;;;;5092633;28;20048;-78
2022/04/24 01:21:54;;;;;;;9.13;6.10;;;9.00;99.90;;;;;;5092596;28;20044;-80
2022/04/24 01:24:22;;;;;;;9.80;6.38;;;9.00;99.90;;;;;;5092346;28;20059;-80
2022/04/24 01:26:48;;;;;;;8.23;6.15;;;9.40;99.90;;;;;;5092198;28;20047;-79
2022/04/24 01:29:14;;;;;;;8.13;6.22;;;8.90;99.90;;;;;;5091752;28;20070;-80
2022/04/24 01:31:40;;;;;;;10.27;6.97;;;8.90;99.90;;;;;;5090820;28;20094;-78
2022/04/24 01:34:06;;;;;;;10.30;6.68;;;8.90;99.90;;;;;;5092445;28;20133;-78
2022/04/24 01:36:32;;;;;;;7.93;6.20;;;8.90;99.90;;;;;;5092315;28;20506;-79
2022/04/24 01:38:58;;;;;;;9.35;7.25;;;9.00;99.90;;;;;;5090999;28;20044;-78
2022/04/24 01:41:24;;;;;;;10.27;6.50;;;8.80;99.90;;;;;;5090648;28;20043;-79
2022/04/24 01:43:50;;;;;;;8.98;6.88;;;9.00;99.90;;;;;;5090263;28;20184;-77
2022/04/24 01:46:15;;;;;;;9.57;7.03;;;8.90;99.90;;;;;;5090209;28;20048;-77
2022/04/24 01:48:41;;;;;;;12.00;7.05;;;8.70;99.90;;;;;;5090179;28;20070;-78
2022/04/24 01:51:09;;;;;;;8.45;6.47;;;8.70;99.90;;;;;;5090498;28;20129;-78
2022/04/24 01:53:35;;;;;;;9.18;6.75;;;8.70;99.90;;;;;;5073676;28;20047;-78
2022/04/24 01:56:04;;;;;;;8.63;6.47;;;8.70;99.90;;;;;;5092129;28;20131;-78
2022/04/24 01:58:31;;;;;;;9.05;6.63;;;8.70;99.90;;;;;;5091825;28;20170;-78
2022/04/24 02:00:56;;;;;;;9.38;6.13;;;8.60;99.90;;;;;;5091724;28;20031;-78
2022/04/24 02:03:24;;;;;;;9.13;6.57;;;8.60;99.90;;;;;;5090579;28;20051;-78
2022/04/24 02:05:50;;;;;;;10.60;6.63;;;8.60;99.90;;;;;;5091659;28;20479;-78
2022/04/24 02:08:16;;;;;;;10.13;6.82;;;8.60;99.90;;;;;;5091375;28;20422;-78
2022/04/24 02:10:42;;;;;;;13.80;7.15;;;8.70;99.90;;;;;;5090334;28;20052;-78
2022/04/24 02:13:08;;;;;;;8.57;6.50;;;8.50;99.90;;;;;;5090782;28;20044;-80
2022/04/24 02:15:34;;;;;;;12.63;6.00;;;8.50;99.90;;;;;;5090311;28;20119;-77
2022/04/24 02:18:00;;;;;;;9.45;6.43;;;8.50;99.90;;;;;;5090039;28;20093;-78
2022/04/24 02:20:26;;;;;;;10.27;6.72;;;8.50;99.90;;;;;;5094518;28;20051;-77
2022/04/24 02:22:55;;;;;;;10.00;6.68;;;8.50;99.90;;;;;;5091659;28;20055;-78
2022/04/24 02:25:21;;;;;;;8.63;5.93;;;8.50;99.90;;;;;;5101555;28;20839;-78
2022/04/24 02:27:46;;;;;;;11.00;6.45;;;8.50;99.90;;;;;;5111148;28;20043;-80
2022/04/24 02:30:12;;;;;;;8.02;6.03;;;8.50;99.90;;;;;;5110267;28;20044;-78
2022/04/24 02:32:38;;;;;;;10.05;6.03;;;8.40;99.90;;;;;;5110659;28;20130;-78
2022/04/24 02:35:04;;;;;;;10.60;6.18;;;8.40;99.90;;;;;;5101943;28;20047;-78
2022/04/24 02:37:32;;;;;;;8.38;6.55;;;8.40;99.90;;;;;;5091361;28;20032;-78
2022/04/24 02:39:58;;;;;;;11.10;6.70;;;8.40;99.90;;;;;;5091501;28;20470;-78
2022/04/24 02:42:23;;;;;;;9.43;6.30;;;8.30;99.90;;;;;;5091148;28;20071;-78
2022/04/24 02:44:49;;;;;;;10.65;6.45;;;8.30;99.90;;;;;;5090963;28;20479;-78
2022/04/24 02:47:15;;;;;;;10.93;7.32;;;8.30;99.90;;;;;;5090881;28;20135;-78
2022/04/24 02:49:41;;;;;;;8.65;6.72;;;8.20;99.90;;;;;;5088874;28;20106;-78
2022/04/24 02:52:07;;;;;;;9.68;6.63;;;8.20;99.90;;;;;;5090259;28;20811;-78
2022/04/24 02:54:32;;;;;;;10.85;7.05;;;8.10;99.90;;;;;;5105372;28;20085;-78
2022/04/24 02:56:59;;;;;;;9.90;7.05;;;8.10;99.90;;;;;;5111084;28;20138;-79
2022/04/24 02:59:25;;;;;;;9.82;7.22;;;8.00;99.90;;;;;;5111107;28;20043;-78
2022/04/24 03:01:52;;;;;;;10.70;7.50;;;8.00;99.90;;;;;;5102165;28;20059;-80
2022/04/24 03:04:19;;;;;;;11.02;7.38;;;7.90;99.90;;;;;;5089788;28;20080;-78
2022/04/24 03:06:45;;;;;;;9.73;6.93;;;7.90;99.90;;;;;;5090726;28;20150;-77
2022/04/24 03:09:11;;;;;;;10.20;7.25;;;7.80;99.90;;;;;;5109289;28;20063;-78
2022/04/24 03:11:37;;;;;;;11.82;6.93;;;7.80;99.90;;;;;;5111016;28;20084;-77
2022/04/24 03:14:02;;;;;;;9.88;6.93;;;7.80;99.90;;;;;;5110796;28;20479;-80
2022/04/24 03:16:28;;;;;;;12.13;7.40;;;7.70;99.90;;;;;;5108817;28;20115;-76
2022/04/24 03:18:54;;;;;;;20.63;8.23;;;7.70;99.90;;;;;;5109732;28;20048;-78
2022/04/24 03:21:19;;;;;;;10.48;7.32;;;7.60;99.90;;;;;;5081814;28;20056;-79
2022/04/24 03:23:45;;;;;;;9.77;7.40;;;7.50;99.90;;;;;;5090767;28;20067;-78
2022/04/24 03:26:13;;;;;;;9.52;6.90;;;7.50;99.90;;;;;;5093503;28;20487;-78
2022/04/24 03:28:40;;;;;;;12.93;7.90;;;7.50;99.90;;;;;;5094610;28;20056;-78
2022/04/24 03:31:06;;;;;;;10.68;7.03;;;7.50;99.90;;;;;;5094682;28;20106;-78
2022/04/24 03:33:31;;;;;;;10.40;7.68;;;7.50;99.90;;;;;;5106288;28;20383;-79
2022/04/24 03:35:57;;;;;;;14.75;7.40;;;7.30;99.90;;;;;;5112875;28;20043;-79
2022/04/24 03:38:23;;;;;;;11.85;7.47;;;7.30;99.90;;;;;;5113573;28;20069;-78
2022/04/24 03:40:49;;;;;;;10.02;7.70;;;7.30;99.90;;;;;;5113479;28;20393;-78
2022/04/24 03:43:14;;;;;;;9.50;7.13;;;7.30;99.90;;;;;;5113117;28;20059;-78
2022/04/24 03:45:40;;;;;;;9.82;7.43;;;7.30;99.90;;;;;;5114513;28;20042;-78
2022/04/24 03:48:06;;;;;;;9.50;7.32;;;7.30;99.90;;;;;;5101021;28;20083;-78
2022/04/24 03:50:31;;;;;;;11.40;7.35;;;7.20;99.90;;;;;;5094842;28;20040;-77
2022/04/24 03:52:57;;;;;;;10.88;7.43;;;7.20;99.90;;;;;;5094594;28;20471;-79
2022/04/24 03:55:22;;;;;;;9.65;7.18;;;7.20;99.90;;;;;;5094235;28;20168;-77
2022/04/24 03:57:48;;;;;;;10.98;7.72;;;7.10;99.90;;;;;;5094096;28;20050;-79
2022/04/24 04:00:14;;;;;;;11.52;7.75;;;7.20;99.90;;;;;;5092868;28;20059;-78
2022/04/24 04:02:47;;;;;;;12.05;7.85;;;7.10;99.90;;;;;;5098210;28;20040;-79
2022/04/24 04:05:16;;;;;;;13.68;7.85;;;7.10;99.90;;;;;;5093942;28;20090;-79
2022/04/24 04:07:42;;;;;;;12.05;7.15;;;7.10;99.90;;;;;;5091833;28;20146;-78
2022/04/24 04:10:09;;;;;;;10.40;7.05;;;7.00;99.90;;;;;;5093880;28;20086;-79
2022/04/24 04:12:35;;;;;;;11.75;7.28;;;7.10;99.90;;;;;;5093823;28;20052;-79
2022/04/24 04:15:05;;;;;;;10.15;7.50;;;7.10;99.90;;;;;;5092376;28;20097;-78
2022/04/24 04:17:32;;;;;;;10.90;7.43;;;7.00;99.90;;;;;;5097180;28;20139;-78
2022/04/24 04:19:59;;;;;;;12.50;7.72;;;7.00;99.90;;;;;;5093191;28;20123;-78
2022/04/24 04:22:25;;;;;;;11.50;7.53;;;7.00;99.90;;;;;;5092975;28;20048;-78
2022/04/24 04:24:51;;;;;;;9.10;6.68;;;7.00;99.90;;;;;;5093523;28;20051;-78
2022/04/24 04:27:17;;;;;;;12.35;7.60;;;7.00;99.90;;;;;;5092325;28;20062;-79
2022/04/24 04:29:43;;;;;;;11.63;7.53;;;7.00;99.90;;;;;;5092054;28;20101;-79
2022/04/24 04:32:09;;;;;;;15.45;7.72;;;7.00;99.90;;;;;;5093760;28;20407;-78
2022/04/24 04:34:34;;;;;;;11.73;7.13;;;7.30;99.90;;;;;;5093176;28;20051;-77
2022/04/24 04:37:00;;;;;;;11.32;7.65;;;7.00;99.90;;;;;;5092952;28;20105;-79
2022/04/24 04:39:26;;;;;;;9.88;7.28;;;6.90;99.90;;;;;;5093079;28;20036;-79
2022/04/24 04:41:51;;;;;;;12.80;7.28;;;7.00;99.90;;;;;;5094423;28;20070;-79
2022/04/24 04:44:17;;;;;;;12.68;7.32;;;6.90;99.90;;;;;;5093075;28;20075;-78
2022/04/24 04:46:43;;;;;;;9.32;6.75;;;6.90;99.90;;;;;;5094359;28;20894;-78
2022/04/24 04:49:09;;;;;;;11.07;7.55;;;6.90;99.90;;;;;;5104463;28;20052;-78
2022/04/24 04:51:35;;;;;;;14.27;7.22;;;6.90;99.90;;;;;;5091911;28;20058;-78
2022/04/24 04:54:00;;;;;;;10.80;7.22;;;6.90;99.90;;;;;;5091532;28;20051;-78
2022/04/24 04:56:26;;;;;;;17.70;8.07;;;6.90;99.90;;;;;;5091640;28;20048;-78
2022/04/24 04:58:52;;;;;;;11.02;6.50;;;6.90;99.90;;;;;;5093070;28;20036;-79
2022/04/24 05:01:18;;;;;;;12.60;7.40;;;6.90;99.90;;;;;;5092913;28;20090;-79
2022/04/24 05:03:43;;;;;;;9.63;7.25;;;7.00;99.90;;;;;;5092822;28;20036;-78
2022/04/24 05:06:09;;;;;;;11.68;7.38;;;7.00;99.90;;;;;;5091273;28;20410;-79
2022/04/24 05:08:35;;;;;;;9.82;6.78;;;7.40;99.90;;;;;;5092572;28;20063;-79
2022/04/24 05:11:01;;;;;;;11.15;7.20;;;7.00;99.90;;;;;;5095019;28;20052;-77
2022/04/24 05:13:27;;;;;;;16.30;7.13;;;7.10;99.90;;;;;;5100592;28;20055;-78
2022/04/24 05:15:53;;;;;;;10.13;6.47;;;7.10;99.90;;;;;;5099368;28;20450;-80
2022/04/24 05:18:19;;;;;;;12.45;7.65;;;7.10;99.90;;;;;;5099816;28;20048;-77
2022/04/24 05:20:45;;;;;;;10.55;7.22;;;7.20;99.90;;;;;;5092914;28;20040;-78
2022/04/24 05:23:11;;;;;;;12.82;6.60;;;7.80;99.90;;;;;;5098266;28;20035;-78
2022/04/24 05:25:37;;;;;;;12.60;6.90;;;7.30;99.90;;;;;;5090640;28;20074;-78
2022/04/24 05:28:04;;;;;;;10.38;7.22;;;7.30;99.90;;;;;;5092059;28;20040;-78
2022/04/24 05:30:29;;;;;;;15.10;6.80;;;7.40;99.90;;;;;;5094928;28;20040;-78
2022/04/24 05:32:55;;;;;;;10.18;7.32;;;7.40;99.90;;;;;;5092676;28;20155;-77
2022/04/24 05:35:21;;;;;;;9.63;6.80;;;7.40;99.90;;;;;;5100190;28;20069;-78
2022/04/24 05:37:48;;;;;;;13.80;7.15;;;7.50;99.90;;;;;;5110082;28;20093;-78
2022/04/24 05:40:15;;;;;;;11.45;7.38;;;7.50;99.90;;;;;;5090795;28;20071;-78
2022/04/24 05:42:53;;;;;;;12.82;7.07;;;7.60;99.90;;;;;;5090252;28;20044;-77
2022/04/24 05:45:22;;;;;;;12.30;8.40;;;7.60;99.90;;;;;;5090913;28;20059;-78
2022/04/24 05:47:53;;;;;;;11.25;7.85;;;7.60;99.90;;;;;;5090964;28;20076;-78
2022/04/24 05:50:19;;;;;;;12.57;8.18;;;7.70;99.90;;;;;;5091814;28;20143;-78
2022/04/24 05:52:45;;;;;;;12.02;8.27;;;7.80;99.90;;;;;;5094681;28;20031;-79
2022/04/24 05:55:11;;;;;;;12.85;8.10;;;7.80;99.90;;;;;;5112464;28;20946;-78
2022/04/24 05:57:37;;;;;;;11.77;7.55;;;7.80;99.90;;;;;;5111765;28;20048;-78
2022/04/24 06:00:08;;;;;;;11.35;7.63;;;7.90;99.90;;;;;;5110738;28;20388;-78
2022/04/24 06:02:34;;;;;;;13.70;7.78;;;8.00;99.90;;;;;;5110920;28;20051;-79
2022/04/24 06:04:59;;;;;;;15.70;7.95;;;8.00;99.90;;;;;;5109354;28;20032;-78
2022/04/24 06:07:25;;;;;;;16.73;8.00;;;8.10;99.90;;;;;;5091121;28;20100;-79
2022/04/24 06:09:51;;;;;;;17.80;8.63;;;8.20;99.90;;;;;;5090985;28;20064;-78
2022/04/24 06:12:17;;;;;;;12.38;7.43;;;8.30;99.90;;;;;;5091534;28;20097;-80
2022/04/24 06:14:43;;;;;;;18.60;8.38;;;8.30;99.90;;;;;;5091083;28;20040;-77
2022/04/24 06:17:08;;;;;;;15.40;7.82;;;8.40;99.90;;;;;;5092231;28;20540;-78
2022/04/24 06:19:34;;;;;;;14.15;8.52;;;8.50;99.90;;;;;;5091237;28;20044;-79
2022/04/24 06:22:00;;;;;;;12.48;8.13;;;8.60;99.90;;;;;;5110540;28;20419;-76
2022/04/24 06:24:26;;;;;;;13.05;8.02;;;8.70;99.90;;;;;;5092973;28;20040;-78
2022/04/24 06:26:52;;;;;;;12.95;7.63;;;8.70;99.90;;;;;;5091287;28;20062;-79
2022/04/24 06:29:17;;;;;;;12.35;8.02;;;8.80;99.90;;;;;;5090835;28;20047;-79
2022/04/24 06:31:43;;;;;;;13.98;8.00;;;8.80;99.90;;;;;;5091316;28;20395;-79
2022/04/24 06:34:10;;;;;;;13.30;7.13;;;8.90;99.90;;;;;;5091337;28;20040;-78
2022/04/24 06:36:36;;;;;;;12.10;7.80;;;8.90;99.90;;;;;;5090808;28;20059;-78
2022/04/24 06:39:02;;;;;;;12.15;7.20;;;9.20;99.90;;;;;;5101775;28;20048;-78
2022/04/24 06:41:28;;;;;;;9.27;6.20;;;9.10;99.90;;;;;;5109210;28;20059;-77
2022/04/24 06:43:54;;;;;;;11.23;6.05;;;9.20;99.90;;;;;;5110425;28;20048;-79
2022/04/24 06:46:20;;;;;;;10.38;6.50;;;9.30;99.90;;;;;;5109490;28;20490;-79
2022/04/24 06:48:46;;;;;;;9.98;6.03;;;9.40;99.90;;;;;;5111004;28;20039;-79
2022/04/24 06:51:11;;;;;;;8.00;5.25;;;9.60;99.90;;;;;;5093036;28;20048;-78
2022/04/24 06:53:38;;;;;;;9.25;5.40;;;9.60;99.90;;;;;;5091978;28;20082;-80
2022/04/24 06:56:04;;;;;;;8.75;4.88;;;9.60;99.90;;;;;;5090650;28;20052;-81
2022/04/24 06:58:30;;;;;;;10.00;5.18;;;9.80;99.90;;;;;;5090498;28;20184;-78
2022/04/24 07:00:56;;;;;;;10.88;4.72;;;9.70;99.90;;;;;;5089072;28;20039;-79
2022/04/24 07:03:23;;;;;;;7.95;4.38;;;9.80;99.90;;;;;;5090570;28;20506;-80
2022/04/24 07:05:53;;;;;;;10.88;4.72;;;9.80;99.90;;;;;;5090543;28;20142;-78
2022/04/24 07:08:19;;;;;;;10.80;4.13;;;10.00;99.90;;;;;;5101898;28;20490;-79
2022/04/24 07:10:45;;;;;;;11.50;4.50;;;10.30;99.90;;;;;;5092656;28;20051;-78
2022/04/24 07:13:11;;;;;;;6.53;3.83;;;10.30;99.90;;;;;;5110849;28;20062;-78
2022/04/24 07:15:39;;;;;;;8.63;4.07;;;10.20;99.90;;;;;;5102679;28;20411;-77
2022/04/24 07:18:05;;;;;;;6.07;3.42;;;10.30;99.90;;;;;;5088715;28;20062;-78
2022/04/24 07:20:31;;;;;;;8.63;3.20;;;10.40;99.90;;;;;;5088943;28;20411;-79
2022/04/24 07:23:00;;;;;;;7.68;3.42;;;10.50;99.90;;;;;;5090678;28;20501;-79
2022/04/24 07:25:27;;;;;;;9.02;3.25;;;10.60;99.90;;;;;;5090986;28;20131;-79
2022/04/24 07:27:54;;;;;;;4.35;2.72;;;10.90;99.90;;;;;;5090200;28;20123;-80
2022/04/24 07:30:21;;;;;;;6.63;3.33;;;10.90;99.90;;;;;;5090379;28;20071;-78
2022/04/24 07:32:49;;;;;;;7.30;3.13;;;10.90;99.90;;;;;;5093312;28;20047;-77
2022/04/24 07:35:17;;;;;;;9.73;2.45;;;11.10;99.90;;;;;;5090205;28;20052;-80
2022/04/24 07:37:44;;;;;;;5.53;2.50;;;11.20;99.90;;;;;;5090504;28;20092;-79
2022/04/24 07:40:11;;;;;;;6.13;2.35;;;11.30;99.90;;;;;;5072692;28;20530;-80
2022/04/24 07:42:51;;;;;;;5.10;2.20;;;11.40;99.90;;;;;;5090427;28;20131;-79
2022/04/24 07:45:28;;;;;;;4.90;1.92;;;11.60;99.90;;;;;;5090206;28;20092;-78
2022/04/24 07:47:55;;;;;;;4.50;1.85;;;11.80;99.90;;;;;;5089757;28;20047;-81
2022/04/24 07:50:23;;;;;;;4.35;2.17;;;11.90;99.90;;;;;;5090359;28;20044;-78
2022/04/24 07:52:49;;;;;;;5.63;2.20;;;12.10;99.90;;;;;;5093408;28;20054;-77
2022/04/24 07:55:18;;;;;;;7.60;1.70;;;12.20;99.90;;;;;;5088847;28;20131;-79
2022/04/24 07:57:47;;;;;;;3.35;1.80;;;12.70;99.90;;;;;;5090275;28;20040;-79
2022/04/24 08:00:14;;;;;;;4.28;1.52;;;12.60;99.90;;;;;;5090263;28;20082;-80
2022/04/24 08:02:49;;;;;;;5.68;1.75;;;12.80;99.90;;;;;;5089075;28;20042;-79
2022/04/24 08:05:18;;;;;;;;;;;13.00;99.90;;;;;;5090579;28;20388;-80
2022/04/24 08:07:44;;;;;;;3.42;1.77;;;13.10;99.90;;;;;;5089917;28;19920;-80
2022/04/24 08:10:09;;;;;;;3.90;1.95;;;13.30;99.90;;;;;;5090452;28;20483;-80
2022/04/24 08:12:35;;;;;;;4.15;2.22;;;13.50;99.90;;;;;;5093801;28;20052;-80
2022/04/24 08:15:01;;;;;;;4.53;1.98;;;13.70;99.90;;;;;;5093538;28;20048;-79
2022/04/24 08:17:26;;;;;;;4.43;1.83;;;13.60;99.90;;;;;;5093524;28;20043;-80
2022/04/24 08:19:52;;;;;;;5.95;2.25;;;13.80;99.90;;;;;;5093183;28;20052;-79
2022/04/24 08:22:18;;;;;;;6.22;2.30;;;14.10;99.90;;;;;;5093561;28;20048;-80
2022/04/24 08:24:43;;;;;;;6.00;2.05;;;14.20;99.90;;;;;;5093539;28;20119;-78
2022/04/24 08:27:09;;;;;;;5.40;2.45;;;14.70;99.90;;;;;;5091854;28;20056;-81
2022/04/24 08:29:34;;;;;;;7.75;2.45;;;14.50;99.90;;;;;;5075383;28;20052;-79
2022/04/24 08:32:00;;;;;;;3.97;2.03;;;14.90;99.90;;;;;;5092091;28;20071;-81
2022/04/24 08:34:26;;;;;;;4.65;1.98;;;14.60;99.90;;;;;;5093314;28;20399;-80
2022/04/24 08:36:51;;;;;;;4.50;2.30;;;14.70;99.90;;;;;;5093398;28;20486;-79
2022/04/24 08:39:17;;;;;;;5.45;2.25;;;14.90;99.90;;;;;;5091769;28;20048;-80
2022/04/24 08:41:43;;;;;;;3.78;2.15;;;15.00;99.90;;;;;;5093153;28;20086;-79
2022/04/24 08:44:09;;;;;;;4.88;2.08;;;15.00;99.90;;;;;;5101537;28;20048;-80
2022/04/24 08:46:35;;;;;;;6.20;2.03;;;15.10;99.90;;;;;;5095009;28;20044;-78
2022/04/24 08:49:02;;;;;;;5.95;2.30;;;15.20;99.90;;;;;;5091956;28;20557;-81
2022/04/24 08:51:29;;;;;;;6.82;2.38;;;15.40;99.90;;;;;;5074554;28;20036;-79
2022/04/24 08:53:56;;;;;;;5.55;2.33;;;15.40;99.90;;;;;;5092969;28;20052;-80
2022/04/24 08:56:22;;;;;;;5.90;2.08;;;15.40;99.90;;;;;;5094968;28;20060;-79
2022/04/24 08:58:47;;;;;;;4.75;2.20;;;15.50;99.90;;;;;;5092740;28;20541;-79
2022/04/24 09:01:13;;;;;;;9.65;2.40;;;15.80;99.90;;;;;;5092526;28;20115;-79
2022/04/24 09:03:39;;;;;;;4.05;2.00;;;15.70;99.80;;;;;;5092915;28;20089;-81
2022/04/24 09:06:05;;;;;;;7.72;2.55;;;15.90;99.90;;;;;;5090968;28;20093;-80
2022/04/24 09:08:35;;;;;;;4.35;2.63;;;16.00;99.40;;;;;;5092630;28;20052;-78
2022/04/24 09:11:02;;;;;;;6.50;2.40;;;16.00;99.50;;;;;;5092511;28;20046;-80
2022/04/24 09:14:14;;;;;;;9.82;2.60;;;16.00;98.90;;;;;;5092567;28;20596;-80
2022/04/24 09:16:19;;;;;;;6.97;2.40;;;16.10;98.80;;;;;;5092283;28;20495;-79
2022/04/24 09:18:48;;;;;;;4.72;2.47;;;16.30;99.10;;;;;;5092778;28;20161;-80
2022/04/24 09:21:13;;;;;;;7.32;2.33;;;16.30;98.00;;;;;;5073951;28;20066;-78
2022/04/24 09:23:42;;;;;;;6.63;2.35;;;16.30;98.50;;;;;;5090493;28;20449;-77
2022/04/24 09:26:14;;;;;;;3.72;1.92;;;16.40;98.80;;;;;;5095734;28;20047;-80
2022/04/24 09:28:40;;;;;;;9.57;2.67;;;16.80;98.40;;;;;;5090628;28;20052;-82
2022/04/24 09:31:07;;;;;;;5.60;2.15;;;16.60;98.40;;;;;;5092184;28;20052;-81
2022/04/24 09:33:43;;;;;;;5.53;2.45;;;16.60;97.50;;;;;;5091092;28;20048;-79
2022/04/24 09:36:10;;;;;;;7.63;2.35;;;16.60;97.90;;;;;;5103215;28;20219;-78
2022/04/24 09:38:45;;;;;;;5.88;2.90;;;16.90;98.00;;;;;;5091523;28;20036;-81
2022/04/24 09:41:21;;;;;;;6.57;2.58;;;17.00;98.30;;;;;;5073552;28;20058;-81
2022/04/24 09:43:48;;;;;;;6.40;2.58;;;17.00;98.30;;;;;;5090584;28;20087;-82
2022/04/24 09:46:24;;;;;;;4.53;2.50;;;17.00;97.90;;;;;;5090936;28;20071;-84
2022/04/24 09:48:53;;;;;;;11.13;2.92;;;17.10;97.40;;;;;;5090446;28;20056;-79
2022/04/24 09:51:21;;;;;;;6.05;2.60;;;17.30;97.70;;;;;;5090385;28;20054;-79
2022/04/24 09:53:47;;;;;;;5.63;2.70;;;17.50;98.00;;;;;;5089975;28;20372;-85
2022/04/24 09:56:17;;;;;;;10.13;2.38;;;17.70;97.40;;;;;;5092036;28;20068;-80
2022/04/24 09:58:45;;;;;;;7.35;2.20;;;17.60;96.90;;;;;;5090923;28;20456;-81
2022/04/24 10:01:12;;;;;;;6.65;2.60;;;17.80;96.60;;;;;;5092125;28;20101;-78
2022/04/24 10:03:38;;;;;;;5.68;2.60;;;17.80;96.10;;;;;;5091815;28;20035;-78
2022/04/24 10:06:07;;;;;;;7.60;2.30;;;17.90;96.60;;;;;;5092465;28;20039;-81
2022/04/24 10:08:35;;;;;;;5.68;2.13;;;18.10;96.40;;;;;;5089992;28;20051;-79
2022/04/24 10:11:05;;;;;;;5.55;2.30;;;17.90;95.30;;;;;;5091485;28;20048;-80
2022/04/24 10:13:36;;;;;;;4.40;2.05;;;18.00;95.00;;;;;;5093058;28;20446;-80
2022/04/24 10:16:18;;;;;;;5.13;2.03;;;18.10;95.00;;;;;;5091583;28;20051;-80
2022/04/24 10:19:19;;;;;;;7.45;2.20;;;18.10;94.90;;;;;;5096065;28;20498;-82
2022/04/24 10:22:00;;;;;;;8.63;2.08;;;18.30;95.20;;;;;;5067251;28;20106;-80
2022/04/24 10:24:41;;;;;;;4.38;1.90;;;18.30;94.30;;;;;;5061471;28;20476;-85
2022/04/24 10:27:07;;;;;;;8.52;2.05;;;18.20;93.30;;;;;;5090664;28;20088;-78
2022/04/24 10:29:33;;;;;;;4.90;2.03;;;18.00;93.90;;;;;;5089981;28;20111;-79
2022/04/24 10:31:59;;;;;;;4.53;2.03;;;18.20;94.80;;;;;;5088474;28;20044;-79
2022/04/24 10:34:26;;;;;;;5.60;2.45;;;18.20;94.60;;;;;;5085754;28;20105;-80
2022/04/24 10:36:59;;;;;;;6.50;2.03;;;18.40;93.70;;;;;;5058849;28;20052;-79
2022/04/24 10:39:27;;;;;;;5.55;2.00;;;18.30;94.50;;;;;;5051244;28;20060;-80
2022/04/24 10:41:59;;;;;;;8.13;2.65;;;18.10;94.10;;;;;;5056080;28;20208;-80
2022/04/24 10:44:26;;;;;;;4.28;1.95;;;18.40;93.20;;;;;;5058158;28;20048;-80
2022/04/24 10:46:54;;;;;;;6.15;2.15;;;18.30;93.40;;;;;;5040934;28;20088;-78
2022/04/24 10:49:22;;;;;;;6.63;2.15;;;18.00;93.20;;;;;;5069528;28;20056;-80
2022/04/24 10:52:03;;;;;;;5.82;2.10;;;18.30;93.90;;;;;;5071310;28;20061;-79
2022/04/24 10:54:37;;;;;;;4.80;1.65;;;18.40;93.70;;;;;;5052616;28;20052;-82
2022/04/24 10:57:15;;;;;;;7.05;2.40;;;18.50;93.50;;;;;;5051412;28;20079;-80
2022/04/24 10:59:52;;;;;;;4.00;2.17;;;18.40;92.70;;;;;;5088176;28;20052;-80
2022/04/24 11:02:24;;;;;;;5.40;2.35;;;18.30;92.60;;;;;;5089267;28;20059;-81
2022/04/24 11:05:03;;;;;;;5.75;2.10;;;18.50;93.30;;;;;;5095325;28;20080;-82
2022/04/24 11:07:31;;;;;;;2.83;1.52;;;18.50;91.80;;;;;;5068760;28;20052;-79
2022/04/24 11:10:01;;;;;;;5.43;1.80;;;18.40;92.10;;;;;;5077491;28;20521;-79
2022/04/24 11:12:31;;;;;;;5.05;2.00;;;18.60;92.60;;;;;;5110212;28;20048;-80
2022/04/24 11:15:07;;;;;;;6.22;1.83;;;18.80;92.40;;;;;;5109383;28;20059;-81
2022/04/24 11:17:34;;;;;;;4.97;1.80;;;19.00;92.60;;;;;;5110723;28;20051;-81
2022/04/24 11:20:03;;;;;;;5.78;1.90;;;18.90;92.00;;;;;;5110602;28;20044;-80
2022/04/24 11:22:31;;;;;;;5.32;1.90;;;18.90;91.60;;;;;;5092657;28;20063;-79
2022/04/24 11:25:01;;;;;;;4.68;1.75;;;18.80;90.80;;;;;;5101794;28;20036;-80
2022/04/24 11:27:27;;;;;;;5.30;2.13;;;18.80;91.30;;;;;;5090605;28;20040;-79
2022/04/24 11:29:53;;;;;;;5.00;2.40;;;18.90;91.80;;;;;;5094832;28;20191;-80
2022/04/24 11:32:21;;;;;;;6.32;1.90;;;18.70;92.10;;;;;;5110831;28;20051;-80
2022/04/24 11:34:47;;;;;;;4.18;2.20;;;18.60;93.20;;;;;;5102819;28;20694;-80
2022/04/24 11:37:12;;;;;;;4.43;2.13;;;18.70;92.70;;;;;;5090370;28;20052;-78
2022/04/24 11:39:39;;;;;;;10.27;3.17;;;18.90;92.80;;;;;;5089053;28;20051;-80
2022/04/24 11:42:05;;;;;;;8.73;2.63;;;19.20;93.00;;;;;;5090463;28;20056;-80
2022/04/24 11:50:13;;;;;;;7.20;3.17;;;18.90;93.00;;;;;;5094368;28;20057;-78
2022/04/24 11:52:50;;;;;;;6.55;2.90;;;19.00;93.30;;;;;;5094317;28;20058;-80
2022/04/24 11:55:23;;;;;;;7.22;2.65;;;18.90;93.10;;;;;;5092802;28;20043;-77
2022/04/24 11:58:00;;;;;;;7.15;2.88;;;18.80;92.70;;;;;;5094055;28;20406;-81
2022/04/24 12:00:34;;;;;;;5.95;2.60;;;18.90;93.20;;;;;;5093841;28;20075;-79
2022/04/24 12:03:01;;;;;;;6.73;3.17;;;18.90;92.80;;;;;;5094098;28;20048;-80
2022/04/24 12:05:29;;;;;;;6.38;2.70;;;18.90;93.40;;;;;;5094044;28;20083;-79
2022/04/24 12:07:56;;;;;;;9.70;3.80;;;18.90;93.70;;;;;;5094005;28;20047;-80
2022/04/24 12:10:25;;;;;;;9.57;3.17;;;19.20;93.90;;;;;;5094022;28;20082;-80
2022/04/24 12:12:52;;;;;;;6.65;2.63;;;19.10;93.30;;;;;;5094129;28;20051;-78
2022/04/24 12:15:23;;;;;;;5.50;2.63;;;18.90;92.50;;;;;;5092566;28;20482;-80
2022/04/24 12:17:51;;;;;;;4.10;2.70;;;18.90;92.80;;;;;;5092183;28;20052;-79
2022/04/24 12:20:17;;;;;;;9.43;3.17;;;18.90;92.80;;;;;;5075393;28;20117;-79
2022/04/24 12:22:43;;;;;;;7.57;3.60;;;19.00;93.00;;;;;;5093564;28;20091;-79
2022/04/24 12:25:18;;;;;;;6.05;2.85;;;19.00;93.40;;;;;;5093406;28;20495;-78
2022/04/24 12:27:54;;;;;;;6.20;3.13;;;18.80;92.60;;;;;;5075292;28;20056;-78
2022/04/24 12:30:21;;;;;;;9.40;3.13;;;18.70;93.50;;;;;;5093536;28;20075;-80
2022/04/24 12:32:46;;;;;;;16.40;3.15;;;18.80;94.00;;;;;;5093131;28;20055;-79
2022/04/24 12:35:33;;;;;;;17.13;3.28;;;19.00;94.10;;;;;;5093327;28;20047;-80
2022/04/24 12:38:00;;;;;;;10.88;3.25;;;19.20;93.70;;;;;;5091857;28;20119;-79
2022/04/24 12:40:26;;;;;;;6.97;3.15;;;19.30;94.00;;;;;;5093242;28;20052;-78
2022/04/24 12:42:56;;;;;;;5.65;2.72;;;19.50;93.90;;;;;;5093300;28;20048;-78
2022/04/24 12:45:22;;;;;;;8.63;3.05;;;19.40;93.10;;;;;;5093459;28;20047;-80
2022/04/24 12:47:49;;;;;;;8.82;3.08;;;19.60;93.70;;;;;;5092740;28;20208;-79
2022/04/24 12:50:18;;;;;;;7.05;3.67;;;19.60;93.50;;;;;;5093141;28;20056;-81
2022/04/24 12:52:44;;;;;;;8.73;2.83;;;19.60;93.40;;;;;;5091806;28;20144;-79
2022/04/24 12:55:11;;;;;;;5.72;2.90;;;19.30;93.10;;;;;;5093337;28;20181;-78